sensor_id;sensor_type;location;lat;lon;timestamp;pressure;altitude;pressure_sealevel;temperature;humidity
63819;BME280;49970;54.976;73.248;2023-03-15T00:01:39;100023.44;;;-5.72;88.02
63819;BME280;49970;54.976;73.248;2023-03-15T00:04:06;100030.25;;;-5.67;88.06
63819;BME280;49970;54.976;73.248;2023-03-15T00:06:33;100038.78;;;-5.60;88.35
63819;BME280;49970;54.976;73.248;2023-03-15T00:08:59;100044.75;;;-5.54;88.42
63819;BME280;49970;54.976;73.248;2023-03-15T00:11:36;100041.28;;;-5.53;88.43
63819;BME280;49970;54.976;73.248;2023-03-15T00:14:03;100044.69;;;-5.47;88.27
63819;BME280;49970;54.976;73.248;2023-03-15T00:16:30;100038.63;;;-5.45;89.03
63819;BME280;49970;54.976;73.248;2023-03-15T00:18:57;100040.28;;;-5.39;89.16
63819;BME280;49970;54.976;73.248;2023-03-15T00:21:28;100034.25;;;-5.37;88.27
63819;BME280;49970;54.976;73.248;2023-03-15T00:23:55;100029.06;;;-5.35;88.68
63819;BME280;49970;54.976;73.248;2023-03-15T00:26:22;100023.94;;;-5.38;88.42
63819;BME280;49970;54.976;73.248;2023-03-15T00:28:48;100014.50;;;-5.41;88.00
63819;BME280;49970;54.976;73.248;2023-03-15T00:31:17;100003.34;;;-5.44;87.88
63819;BME280;49970;54.976;73.248;2023-03-15T00:33:44;99999.94;;;-5.48;88.08
63819;BME280;49970;54.976;73.248;2023-03-15T00:36:12;99995.66;;;-5.47;88.33
63819;BME280;49970;54.976;73.248;2023-03-15T00:38:50;99992.19;;;-5.48;88.56
63819;BME280;49970;54.976;73.248;2023-03-15T00:41:18;99972.50;;;-5.54;88.43
63819;BME280;49970;54.976;73.248;2023-03-15T00:43:44;99981.84;;;-5.45;87.81
63819;BME280;49970;54.976;73.248;2023-03-15T00:46:12;99972.38;;;-5.44;88.04
63819;BME280;49970;54.976;73.248;2023-03-15T00:48:38;99955.22;;;-5.48;88.15
63819;BME280;49970;54.976;73.248;2023-03-15T00:51:11;99965.44;;;-5.39;88.29
63819;BME280;49970;54.976;73.248;2023-03-15T00:53:40;99972.28;;;-5.35;88.23
63819;BME280;49970;54.976;73.248;2023-03-15T00:56:10;99966.19;;;-5.31;88.63
63819;BME280;49970;54.976;73.248;2023-03-15T00:58:37;99966.22;;;-5.33;87.96
63819;BME280;49970;54.976;73.248;2023-03-15T01:01:08;99959.28;;;-5.28;88.28
63819;BME280;49970;54.976;73.248;2023-03-15T01:03:47;99935.22;;;-5.30;88.38
63819;BME280;49970;54.976;73.248;2023-03-15T01:06:16;99930.03;;;-5.28;88.92
63819;BME280;49970;54.976;73.248;2023-03-15T01:08:43;99931.69;;;-5.24;88.35
63819;BME280;49970;54.976;73.248;2023-03-15T01:11:12;99921.38;;;-5.22;88.30
63819;BME280;49970;54.976;73.248;2023-03-15T01:13:39;99917.88;;;-5.20;88.75
63819;BME280;49970;54.976;73.248;2023-03-15T01:16:12;99915.22;;;-5.15;88.45
63819;BME280;49970;54.976;73.248;2023-03-15T01:18:39;99920.31;;;-5.11;88.49
63819;BME280;49970;54.976;73.248;2023-03-15T01:21:14;99938.38;;;-5.08;88.74
63819;BME280;49970;54.976;73.248;2023-03-15T01:23:50;99927.16;;;-5.07;88.45
63819;BME280;49970;54.976;73.248;2023-03-15T01:26:20;99928.94;;;-5.09;88.68
63819;BME280;49970;54.976;73.248;2023-03-15T01:28:51;99936.53;;;-4.99;89.02
63819;BME280;49970;54.976;73.248;2023-03-15T01:31:25;99938.25;;;-4.97;88.43
63819;BME280;49970;54.976;73.248;2023-03-15T01:33:57;99939.09;;;-4.98;88.16
63819;BME280;49970;54.976;73.248;2023-03-15T01:36:26;99921.00;;;-4.96;88.63
63819;BME280;49970;54.976;73.248;2023-03-15T01:38:52;99928.75;;;-4.96;88.40
63819;BME280;49970;54.976;73.248;2023-03-15T01:41:25;99926.16;;;-4.96;88.35
63819;BME280;49970;54.976;73.248;2023-03-15T01:43:53;99898.63;;;-4.97;88.24
63819;BME280;49970;54.976;73.248;2023-03-15T01:49:20;99877.97;;;-4.97;88.14
63819;BME280;49970;54.976;73.248;2023-03-15T01:54:42;99879.63;;;-4.93;88.72
63819;BME280;49970;54.976;73.248;2023-03-15T01:57:47;99889.13;;;-4.95;87.89
63819;BME280;49970;54.976;73.248;2023-03-15T02:00:17;99896.84;;;-4.92;88.60
63819;BME280;49970;54.976;73.248;2023-03-15T02:02:58;99897.69;;;-4.93;88.37
63819;BME280;49970;54.976;73.248;2023-03-15T02:05:31;99897.75;;;-4.96;87.75
63819;BME280;49970;54.976;73.248;2023-03-15T02:08:02;99896.91;;;-4.98;87.95
63819;BME280;49970;54.976;73.248;2023-03-15T02:10:43;99880.69;;;-5.05;87.91
63819;BME280;49970;54.976;73.248;2023-03-15T02:13:14;99873.00;;;-5.10;87.52
63819;BME280;49970;54.976;73.248;2023-03-15T02:15:52;99879.00;;;-5.11;87.64
63819;BME280;49970;54.976;73.248;2023-03-15T02:18:29;99872.13;;;-5.10;87.49
63819;BME280;49970;54.976;73.248;2023-03-15T02:23:49;99862.72;;;-5.13;87.88
63819;BME280;49970;54.976;73.248;2023-03-15T02:26:28;99860.94;;;-5.09;87.89
63819;BME280;49970;54.976;73.248;2023-03-15T02:28:58;99854.03;;;-5.09;86.90
63819;BME280;49970;54.976;73.248;2023-03-15T02:31:24;99860.06;;;-5.08;88.02
63819;BME280;49970;54.976;73.248;2023-03-15T02:33:52;99866.03;;;-5.06;87.44
63819;BME280;49970;54.976;73.248;2023-03-15T02:36:23;99866.03;;;-5.05;87.59
63819;BME280;49970;54.976;73.248;2023-03-15T02:38:55;99865.13;;;-5.01;87.48
63819;BME280;49970;54.976;73.248;2023-03-15T02:41:35;99865.13;;;-5.01;87.93
63819;BME280;49970;54.976;73.248;2023-03-15T02:44:15;99866.81;;;-4.99;87.23
63819;BME280;49970;54.976;73.248;2023-03-15T02:46:56;99866.00;;;-5.02;87.92
63819;BME280;49970;54.976;73.248;2023-03-15T02:49:33;99866.84;;;-5.03;87.85
63819;BME280;49970;54.976;73.248;2023-03-15T02:52:00;99865.25;;;-5.10;87.68
63819;BME280;49970;54.976;73.248;2023-03-15T02:54:26;99872.19;;;-5.13;88.17
63819;BME280;49970;54.976;73.248;2023-03-15T02:57:02;99867.97;;;-5.20;87.99
63819;BME280;49970;54.976;73.248;2023-03-15T02:59:40;99865.59;;;-5.34;88.00
63819;BME280;49970;54.976;73.248;2023-03-15T03:02:21;99878.53;;;-5.37;88.30
63819;BME280;49970;54.976;73.248;2023-03-15T03:04:47;99889.69;;;-5.35;88.45
63819;BME280;49970;54.976;73.248;2023-03-15T03:07:14;99882.81;;;-5.36;88.67
63819;BME280;49970;54.976;73.248;2023-03-15T03:09:46;99894.03;;;-5.37;88.92
63819;BME280;49970;54.976;73.248;2023-03-15T03:12:13;99887.13;;;-5.37;89.11
63819;BME280;49970;54.976;73.248;2023-03-15T03:14:40;99885.44;;;-5.38;89.04
63819;BME280;49970;54.976;73.248;2023-03-15T03:17:12;99883.72;;;-5.39;89.22
63819;BME280;49970;54.976;73.248;2023-03-15T03:20:10;99870.75;;;-5.36;89.67
63819;BME280;49970;54.976;73.248;2023-03-15T03:24:00;99858.69;;;-5.35;89.65
63819;BME280;49970;54.976;73.248;2023-03-15T03:27:54;99851.03;;;-5.38;89.43
63819;BME280;49970;54.976;73.248;2023-03-15T03:31:26;99866.56;;;-5.44;89.32
63819;BME280;49970;54.976;73.248;2023-03-15T03:33:55;99859.69;;;-5.42;89.22
63819;BME280;49970;54.976;73.248;2023-03-15T03:36:22;99866.50;;;-5.40;89.69
63819;BME280;49970;54.976;73.248;2023-03-15T03:38:59;99876.84;;;-5.40;89.77
63819;BME280;49970;54.976;73.248;2023-03-15T03:41:26;99880.28;;;-5.41;89.62
63819;BME280;49970;54.976;73.248;2023-03-15T03:43:59;99875.91;;;-5.36;89.47
63819;BME280;49970;54.976;73.248;2023-03-15T03:46:25;99860.41;;;-5.33;89.93
63819;BME280;49970;54.976;73.248;2023-03-15T03:49:03;99857.75;;;-5.27;90.02
63819;BME280;49970;54.976;73.248;2023-03-15T03:51:29;99870.59;;;-5.22;90.11
63819;BME280;49970;54.976;73.248;2023-03-15T03:53:59;99866.19;;;-5.15;89.84
63819;BME280;49970;54.976;73.248;2023-03-15T03:56:27;99865.28;;;-5.13;89.49
63819;BME280;49970;54.976;73.248;2023-03-15T03:58:53;99857.50;;;-5.10;90.49
63819;BME280;49970;54.976;73.248;2023-03-15T04:01:25;99858.28;;;-5.06;90.12
63819;BME280;49970;54.976;73.248;2023-03-15T04:03:53;99850.47;;;-5.00;90.49
63819;BME280;49970;54.976;73.248;2023-03-15T04:06:22;99859.84;;;-4.94;90.42
63819;BME280;49970;54.976;73.248;2023-03-15T04:08:59;99858.09;;;-4.92;90.24
63819;BME280;49970;54.976;73.248;2023-03-15T04:11:35;99835.56;;;-4.83;90.04
63819;BME280;49970;54.976;73.248;2023-03-15T04:14:04;99826.06;;;-4.81;89.70
63819;BME280;49970;54.976;73.248;2023-03-15T04:16:31;99842.34;;;-4.77;90.59
63819;BME280;49970;54.976;73.248;2023-03-15T04:19:08;99839.63;;;-4.69;90.28
63819;BME280;49970;54.976;73.248;2023-03-15T04:21:39;99845.56;;;-4.64;90.45
63819;BME280;49970;54.976;73.248;2023-03-15T04:24:37;99854.13;;;-4.61;90.16
63819;BME280;49970;54.976;73.248;2023-03-15T04:27:30;99834.25;;;-4.57;90.30
63819;BME280;49970;54.976;73.248;2023-03-15T04:30:15;99839.47;;;-4.59;89.61
63819;BME280;49970;54.976;73.248;2023-03-15T04:32:52;99828.28;;;-4.61;89.92
63819;BME280;49970;54.976;73.248;2023-03-15T04:35:57;99829.84;;;-4.52;89.84
63819;BME280;49970;54.976;73.248;2023-03-15T04:38:44;99822.94;;;-4.52;89.67
63819;BME280;49970;54.976;73.248;2023-03-15T04:41:33;99826.47;;;-4.56;89.41
63819;BME280;49970;54.976;73.248;2023-03-15T04:44:05;99826.41;;;-4.51;90.08
63819;BME280;49970;54.976;73.248;2023-03-15T04:46:53;99836.59;;;-4.43;89.47
63819;BME280;49970;54.976;73.248;2023-03-15T04:49:37;99833.97;;;-4.39;89.90
63819;BME280;49970;54.976;73.248;2023-03-15T04:52:22;99837.25;;;-4.32;89.54
63819;BME280;49970;54.976;73.248;2023-03-15T04:55:08;99830.31;;;-4.29;89.57
63819;BME280;49970;54.976;73.248;2023-03-15T04:57:55;99824.19;;;-4.24;89.38
63819;BME280;49970;54.976;73.248;2023-03-15T05:00:40;99821.56;;;-4.21;89.54
63819;BME280;49970;54.976;73.248;2023-03-15T05:03:37;99821.47;;;-4.18;89.94
63819;BME280;49970;54.976;73.248;2023-03-15T05:06:15;99836.94;;;-4.14;89.81
63819;BME280;49970;54.976;73.248;2023-03-15T05:09:10;99834.41;;;-4.17;89.29
63819;BME280;49970;54.976;73.248;2023-03-15T05:12:07;99831.03;;;-4.20;89.08
63819;BME280;49970;54.976;73.248;2023-03-15T05:15:03;99834.50;;;-4.23;89.17
63819;BME280;49970;54.976;73.248;2023-03-15T05:17:30;99841.41;;;-4.22;89.50
63819;BME280;49970;54.976;73.248;2023-03-15T05:20:30;99825.06;;;-4.24;89.19
63819;BME280;49970;54.976;73.248;2023-03-15T05:23:29;99835.34;;;-4.21;89.77
63819;BME280;49970;54.976;73.248;2023-03-15T05:26:19;99835.22;;;-4.15;89.54
63819;BME280;49970;54.976;73.248;2023-03-15T05:29:03;99842.03;;;-4.09;89.53
63819;BME280;49970;54.976;73.248;2023-03-15T05:32:05;99841.94;;;-4.06;88.96
63819;BME280;49970;54.976;73.248;2023-03-15T05:34:57;99838.56;;;-4.10;89.60
63819;BME280;49970;54.976;73.248;2023-03-15T05:37:56;99841.16;;;-4.10;89.35
63819;BME280;49970;54.976;73.248;2023-03-15T05:40:34;99845.47;;;-4.09;89.20
63819;BME280;49970;54.976;73.248;2023-03-15T05:43:16;99841.94;;;-4.05;89.70
63819;BME280;49970;54.976;73.248;2023-03-15T05:45:56;99836.72;;;-4.03;88.96
63819;BME280;49970;54.976;73.248;2023-03-15T05:48:46;99831.56;;;-4.03;89.42
63819;BME280;49970;54.976;73.248;2023-03-15T05:51:23;99839.22;;;-3.98;89.32
63819;BME280;49970;54.976;73.248;2023-03-15T05:54:01;99828.84;;;-3.97;89.41
63819;BME280;49970;54.976;73.248;2023-03-15T05:56:48;99823.84;;;-4.05;88.46
63819;BME280;49970;54.976;73.248;2023-03-15T05:59:22;99833.38;;;-4.10;88.73
63819;BME280;49970;54.976;73.248;2023-03-15T06:02:09;99841.22;;;-4.13;88.64
63819;BME280;49970;54.976;73.248;2023-03-15T06:04:44;99839.53;;;-4.14;88.97
63819;BME280;49970;54.976;73.248;2023-03-15T06:07:14;99842.06;;;-4.12;88.64
63819;BME280;49970;54.976;73.248;2023-03-15T06:09:50;99851.47;;;-4.08;88.23
63819;BME280;49970;54.976;73.248;2023-03-15T06:12:17;99856.72;;;-4.11;88.21
63819;BME280;49970;54.976;73.248;2023-03-15T06:14:54;99844.69;;;-4.14;88.37
63819;BME280;49970;54.976;73.248;2023-03-15T06:17:31;99842.06;;;-4.12;88.32
63819;BME280;49970;54.976;73.248;2023-03-15T06:19:57;99842.13;;;-4.14;88.00
63819;BME280;49970;54.976;73.248;2023-03-15T06:22:25;99833.56;;;-4.19;88.55
63819;BME280;49970;54.976;73.248;2023-03-15T06:25:01;99842.19;;;-4.18;88.86
63819;BME280;49970;54.976;73.248;2023-03-15T06:27:28;99845.59;;;-4.16;88.50
63819;BME280;49970;54.976;73.248;2023-03-15T06:29:56;99843.06;;;-4.18;88.58
63819;BME280;49970;54.976;73.248;2023-03-15T06:32:23;99850.84;;;-4.21;88.09
63819;BME280;49970;54.976;73.248;2023-03-15T06:34:50;99840.56;;;-4.24;88.01
63819;BME280;49970;54.976;73.248;2023-03-15T06:37:16;99859.41;;;-4.17;88.34
63819;BME280;49970;54.976;73.248;2023-03-15T06:39:42;99861.06;;;-4.15;88.68
63819;BME280;49970;54.976;73.248;2023-03-15T06:42:20;99859.44;;;-4.19;88.48
63819;BME280;49970;54.976;73.248;2023-03-15T06:44:46;99855.28;;;-4.26;87.68
63819;BME280;49970;54.976;73.248;2023-03-15T06:47:13;99851.03;;;-4.32;88.15
63819;BME280;49970;54.976;73.248;2023-03-15T06:49:41;99861.28;;;-4.27;88.20
63819;BME280;49970;54.976;73.248;2023-03-15T06:52:18;99849.38;;;-4.34;88.05
63819;BME280;49970;54.976;73.248;2023-03-15T06:54:44;99862.94;;;-4.23;88.58
63819;BME280;49970;54.976;73.248;2023-03-15T06:57:10;99867.19;;;-4.17;88.13
63819;BME280;49970;54.976;73.248;2023-03-15T06:59:41;99867.19;;;-4.17;88.47
63819;BME280;49970;54.976;73.248;2023-03-15T07:02:16;99867.97;;;-4.14;88.66
63819;BME280;49970;54.976;73.248;2023-03-15T07:04:43;99861.06;;;-4.13;88.81
63819;BME280;49970;54.976;73.248;2023-03-15T07:07:13;99855.81;;;-4.10;89.35
63819;BME280;49970;54.976;73.248;2023-03-15T07:09:49;99868.69;;;-4.07;88.89
63819;BME280;49970;54.976;73.248;2023-03-15T07:12:20;99875.59;;;-4.08;88.87
63819;BME280;49970;54.976;73.248;2023-03-15T07:14:51;99870.47;;;-4.09;89.03
63819;BME280;49970;54.976;73.248;2023-03-15T07:17:18;99877.34;;;-4.10;89.22
63819;BME280;49970;54.976;73.248;2023-03-15T07:19:54;99869.75;;;-4.17;89.59
63819;BME280;49970;54.976;73.248;2023-03-15T07:22:20;99872.41;;;-4.20;90.00
63819;BME280;49970;54.976;73.248;2023-03-15T07:24:47;99871.59;;;-4.24;89.79
63819;BME280;49970;54.976;73.248;2023-03-15T07:27:14;99871.69;;;-4.29;90.00
63819;BME280;49970;54.976;73.248;2023-03-15T07:29:40;99878.59;;;-4.29;89.85
63819;BME280;49970;54.976;73.248;2023-03-15T07:32:06;99869.91;;;-4.25;90.61
63819;BME280;49970;54.976;73.248;2023-03-15T07:34:39;99869.06;;;-4.27;90.14
63819;BME280;49970;54.976;73.248;2023-03-15T07:37:15;99876.75;;;-4.24;90.80
63819;BME280;49970;54.976;73.248;2023-03-15T07:39:42;99873.50;;;-4.35;89.97
63819;BME280;49970;54.976;73.248;2023-03-15T07:42:08;99868.41;;;-4.40;90.34
63819;BME280;49970;54.976;73.248;2023-03-15T07:44:40;99871.13;;;-4.47;90.55
63819;BME280;49970;54.976;73.248;2023-03-15T07:47:06;99869.56;;;-4.55;90.94
63819;BME280;49970;54.976;73.248;2023-03-15T07:49:32;99866.19;;;-4.60;91.09
63819;BME280;49970;54.976;73.248;2023-03-15T07:52:09;99856.75;;;-4.62;91.79
63819;BME280;49970;54.976;73.248;2023-03-15T07:54:35;99861.81;;;-4.56;92.35
63819;BME280;49970;54.976;73.248;2023-03-15T07:57:02;99871.22;;;-4.51;91.39
63819;BME280;49970;54.976;73.248;2023-03-15T07:59:28;99863.53;;;-4.55;91.72
63819;BME280;49970;54.976;73.248;2023-03-15T08:01:55;99865.22;;;-4.54;92.00
63819;BME280;49970;54.976;73.248;2023-03-15T08:04:21;99866.88;;;-4.52;91.95
63819;BME280;49970;54.976;73.248;2023-03-15T08:06:47;99872.94;;;-4.51;92.94
63819;BME280;49970;54.976;73.248;2023-03-15T08:09:19;99866.97;;;-4.55;91.68
63819;BME280;49970;54.976;73.248;2023-03-15T08:11:45;99865.31;;;-4.60;92.48
63819;BME280;49970;54.976;73.248;2023-03-15T08:14:11;99865.41;;;-4.65;91.95
63819;BME280;49970;54.976;73.248;2023-03-15T08:16:38;99859.41;;;-4.67;92.05
63819;BME280;49970;54.976;73.248;2023-03-15T08:19:04;99864.59;;;-4.67;92.42
63819;BME280;49970;54.976;73.248;2023-03-15T08:21:40;99870.59;;;-4.66;92.08
63819;BME280;49970;54.976;73.248;2023-03-15T08:24:11;99861.22;;;-4.72;92.30
63819;BME280;49970;54.976;73.248;2023-03-15T08:26:37;99866.41;;;-4.72;91.94
63819;BME280;49970;54.976;73.248;2023-03-15T08:29:04;99870.59;;;-4.66;92.37
63819;BME280;49970;54.976;73.248;2023-03-15T08:31:30;99868.00;;;-4.66;92.66
63819;BME280;49970;54.976;73.248;2023-03-15T08:33:58;99869.72;;;-4.65;92.27
63819;BME280;49970;54.976;73.248;2023-03-15T08:36:24;99856.84;;;-4.68;92.29
63819;BME280;49970;54.976;73.248;2023-03-15T08:38:50;99867.97;;;-4.65;92.82
63819;BME280;49970;54.976;73.248;2023-03-15T08:41:16;99874.09;;;-4.70;92.97
63819;BME280;49970;54.976;73.248;2023-03-15T08:43:53;99879.31;;;-4.73;93.12
63819;BME280;49970;54.976;73.248;2023-03-15T08:46:19;99876.78;;;-4.75;93.36
63819;BME280;49970;54.976;73.248;2023-03-15T08:48:46;99872.53;;;-4.79;92.94
63819;BME280;49970;54.976;73.248;2023-03-15T08:51:13;99880.25;;;-4.76;93.25
63819;BME280;49970;54.976;73.248;2023-03-15T08:53:39;99887.19;;;-4.81;92.96
63819;BME280;49970;54.976;73.248;2023-03-15T08:56:06;99878.66;;;-4.86;93.15
63819;BME280;49970;54.976;73.248;2023-03-15T08:58:32;99884.75;;;-4.89;93.34
63819;BME280;49970;54.976;73.248;2023-03-15T09:00:59;99883.13;;;-4.96;93.96
63819;BME280;49970;54.976;73.248;2023-03-15T09:03:25;99890.81;;;-4.93;93.96
63819;BME280;49970;54.976;73.248;2023-03-15T09:05:55;99888.25;;;-4.94;94.24
63819;BME280;49970;54.976;73.248;2023-03-15T09:08:32;99899.44;;;-4.94;94.39
63819;BME280;49970;54.976;73.248;2023-03-15T09:10:59;99895.25;;;-5.01;94.32
63819;BME280;49970;54.976;73.248;2023-03-15T09:13:27;99898.72;;;-5.04;94.68
63819;BME280;49970;54.976;73.248;2023-03-15T09:15:58;99898.81;;;-5.10;95.25
63819;BME280;49970;54.976;73.248;2023-03-15T09:18:24;99901.47;;;-5.16;95.87
63819;BME280;49970;54.976;73.248;2023-03-15T09:20:50;99910.88;;;-5.12;95.30
63819;BME280;49970;54.976;73.248;2023-03-15T09:23:17;99905.75;;;-5.13;96.35
63819;BME280;49970;54.976;73.248;2023-03-15T09:25:53;99901.41;;;-5.11;97.74
63819;BME280;49970;54.976;73.248;2023-03-15T09:28:29;99903.28;;;-5.21;97.09
63819;BME280;49970;54.976;73.248;2023-03-15T09:30:55;99916.94;;;-5.13;97.99
63819;BME280;49970;54.976;73.248;2023-03-15T09:33:22;99920.41;;;-5.14;97.94
63819;BME280;49970;54.976;73.248;2023-03-15T09:35:51;99912.59;;;-5.09;98.29
63819;BME280;49970;54.976;73.248;2023-03-15T09:38:22;99921.19;;;-5.09;98.99
63819;BME280;49970;54.976;73.248;2023-03-15T09:40:49;99926.31;;;-5.06;98.42
63819;BME280;49970;54.976;73.248;2023-03-15T09:43:37;99932.25;;;-5.01;98.54
63819;BME280;49970;54.976;73.248;2023-03-15T09:48:48;99937.50;;;-5.07;98.66
63819;BME280;49970;54.976;73.248;2023-03-15T09:51:37;99940.94;;;-5.08;98.76
63819;BME280;49970;54.976;73.248;2023-03-15T09:54:27;99943.56;;;-5.11;98.69
63819;BME280;49970;54.976;73.248;2023-03-15T09:56:58;99942.72;;;-5.10;98.61
63819;BME280;49970;54.976;73.248;2023-03-15T09:59:50;99941.06;;;-5.14;98.75
63819;BME280;49970;54.976;73.248;2023-03-15T10:02:28;99952.25;;;-5.16;99.36
63819;BME280;49970;54.976;73.248;2023-03-15T10:05:11;99947.13;;;-5.18;99.37
63819;BME280;49970;54.976;73.248;2023-03-15T10:07:43;99952.31;;;-5.21;98.63
63819;BME280;49970;54.976;73.248;2023-03-15T10:10:24;99954.88;;;-5.19;99.65
63819;BME280;49970;54.976;73.248;2023-03-15T10:13:15;99955.75;;;-5.20;99.56
63819;BME280;49970;54.976;73.248;2023-03-15T10:15:54;99953.22;;;-5.22;99.18
63819;BME280;49970;54.976;73.248;2023-03-15T10:23:53;99948.81;;;-5.17;99.62
63819;BME280;49970;54.976;73.248;2023-03-15T10:26:28;99963.44;;;-5.16;99.51
63819;BME280;49970;54.976;73.248;2023-03-15T10:28:58;99959.97;;;-5.13;99.39
63819;BME280;49970;54.976;73.248;2023-03-15T10:31:35;99959.97;;;-5.13;99.44
63819;BME280;49970;54.976;73.248;2023-03-15T10:34:03;99973.72;;;-5.13;99.27
63819;BME280;49970;54.976;73.248;2023-03-15T10:36:29;99972.88;;;-5.13;99.63
63819;BME280;49970;54.976;73.248;2023-03-15T10:38:57;99973.78;;;-5.19;99.57
63819;BME280;49970;54.976;73.248;2023-03-15T10:41:29;99966.16;;;-5.28;99.42
63819;BME280;49970;54.976;73.248;2023-03-15T10:44:08;99975.63;;;-5.27;99.73
63819;BME280;49970;54.976;73.248;2023-03-15T10:47:02;99982.50;;;-5.28;99.74
63819;BME280;49970;54.976;73.248;2023-03-15T10:49:36;99977.41;;;-5.32;99.66
63819;BME280;49970;54.976;73.248;2023-03-15T10:52:04;99989.44;;;-5.31;99.97
63819;BME280;49970;54.976;73.248;2023-03-15T10:54:33;99995.41;;;-5.26;100.00
63819;BME280;49970;54.976;73.248;2023-03-15T10:59:31;99996.22;;;-5.21;100.00
63819;BME280;49970;54.976;73.248;2023-03-15T11:02:17;99994.44;;;-5.19;100.00
63819;BME280;49970;54.976;73.248;2023-03-15T11:04:58;99997.03;;;-5.19;100.00
63819;BME280;49970;54.976;73.248;2023-03-15T11:07:34;99993.59;;;-5.19;100.00
63819;BME280;49970;54.976;73.248;2023-03-15T11:10:03;99998.75;;;-5.18;100.00
63819;BME280;49970;54.976;73.248;2023-03-15T11:12:32;99996.13;;;-5.15;100.00
63819;BME280;49970;54.976;73.248;2023-03-15T11:15:02;100004.72;;;-5.13;100.00
63819;BME280;49970;54.976;73.248;2023-03-15T11:17:32;99999.56;;;-5.14;100.00
63819;BME280;49970;54.976;73.248;2023-03-15T11:20:14;100002.16;;;-5.16;100.00
63819;BME280;49970;54.976;73.248;2023-03-15T11:22:44;100003.91;;;-5.16;100.00
63819;BME280;49970;54.976;73.248;2023-03-15T11:25:14;99999.56;;;-5.14;100.00
63819;BME280;49970;54.976;73.248;2023-03-15T11:27:42;100003.81;;;-5.09;100.00
63819;BME280;49970;54.976;73.248;2023-03-15T11:30:26;100008.06;;;-5.05;100.00
63819;BME280;49970;54.976;73.248;2023-03-15T11:32:54;99999.44;;;-5.04;100.00
63819;BME280;49970;54.976;73.248;2023-03-15T11:35:34;99995.97;;;-5.03;100.00
63819;BME280;49970;54.976;73.248;2023-03-15T11:38:10;100004.56;;;-5.01;100.00
63819;BME280;49970;54.976;73.248;2023-03-15T11:40:42;100001.94;;;-4.99;100.00
63819;BME280;49970;54.976;73.248;2023-03-15T11:45:57;100007.00;;;-4.90;100.00
63819;BME280;49970;54.976;73.248;2023-03-15T11:49:18;100009.53;;;-4.87;100.00
63819;BME280;49970;54.976;73.248;2023-03-15T11:51:48;100011.28;;;-4.87;100.00
63819;BME280;49970;54.976;73.248;2023-03-15T11:54:16;100022.47;;;-4.87;100.00
63819;BME280;49970;54.976;73.248;2023-03-15T11:56:45;100016.38;;;-4.83;100.00
63819;BME280;49970;54.976;73.248;2023-03-15T11:59:31;100025.84;;;-4.82;100.00
63819;BME280;49970;54.976;73.248;2023-03-15T12:10:18;100033.69;;;-4.88;100.00
63819;BME280;49970;54.976;73.248;2023-03-15T12:12:47;100038.00;;;-4.90;100.00
63819;BME280;49970;54.976;73.248;2023-03-15T12:18:04;100044.94;;;-4.95;100.00
63819;BME280;49970;54.976;73.248;2023-03-15T12:28:51;100058.00;;;-5.06;100.00
63819;BME280;49970;54.976;73.248;2023-03-15T12:31:25;100046.91;;;-5.14;100.00
63819;BME280;49970;54.976;73.248;2023-03-15T12:33:53;100062.28;;;-5.06;100.00
63819;BME280;49970;54.976;73.248;2023-03-15T12:42:57;100076.16;;;-5.15;100.00
63819;BME280;49970;54.976;73.248;2023-03-15T12:50:49;100078.03;;;-5.26;100.00
63819;BME280;49970;54.976;73.248;2023-03-15T13:01:50;100082.22;;;-5.17;100.00
63819;BME280;49970;54.976;73.248;2023-03-15T13:04:28;100100.25;;;-5.14;100.00
63819;BME280;49970;54.976;73.248;2023-03-15T13:10:15;100093.34;;;-5.11;100.00
63819;BME280;49970;54.976;73.248;2023-03-15T13:13:13;100092.47;;;-5.08;100.00
63819;BME280;49970;54.976;73.248;2023-03-15T13:16:00;100100.19;;;-5.05;100.00
63819;BME280;49970;54.976;73.248;2023-03-15T13:18:35;100101.00;;;-5.03;100.00
63819;BME280;49970;54.976;73.248;2023-03-15T13:21:35;100106.16;;;-5.03;100.00
63819;BME280;49970;54.976;73.248;2023-03-15T13:24:13;100101.81;;;-4.99;100.00
63819;BME280;49970;54.976;73.248;2023-03-15T13:27:07;100109.53;;;-4.98;100.00
63819;BME280;49970;54.976;73.248;2023-03-15T13:29:38;100114.72;;;-4.98;100.00
63819;BME280;49970;54.976;73.248;2023-03-15T13:32:14;100111.28;;;-4.98;100.00
63819;BME280;49970;54.976;73.248;2023-03-15T13:34:43;100114.75;;;-4.99;100.00
63819;BME280;49970;54.976;73.248;2023-03-15T13:37:20;100110.44;;;-4.99;100.00
63819;BME280;49970;54.976;73.248;2023-03-15T13:40:13;100111.28;;;-4.98;100.00
63819;BME280;49970;54.976;73.248;2023-03-15T13:42:41;100118.16;;;-4.97;100.00
63819;BME280;49970;54.976;73.248;2023-03-15T13:47:34;100125.03;;;-4.96;100.00
63819;BME280;49970;54.976;73.248;2023-03-15T13:50:16;100121.59;;;-4.95;100.00
63819;BME280;49970;54.976;73.248;2023-03-15T13:52:53;100120.69;;;-4.91;100.00
63819;BME280;49970;54.976;73.248;2023-03-15T13:55:21;100127.56;;;-4.89;100.00
63819;BME280;49970;54.976;73.248;2023-03-15T13:57:53;100129.25;;;-4.88;100.00
63819;BME280;49970;54.976;73.248;2023-03-15T14:00:22;100122.34;;;-4.87;100.00
63819;BME280;49970;54.976;73.248;2023-03-15T14:03:06;100129.22;;;-4.86;100.00
63819;BME280;49970;54.976;73.248;2023-03-15T14:05:43;100133.50;;;-4.85;100.00
63819;BME280;49970;54.976;73.248;2023-03-15T14:08:26;100128.34;;;-4.85;100.00
63819;BME280;49970;54.976;73.248;2023-03-15T14:11:07;100134.38;;;-4.83;100.00
63819;BME280;49970;54.976;73.248;2023-03-15T14:13:53;100094.97;;;-5.02;100.00
63819;BME280;49970;54.976;73.248;2023-03-15T14:16:44;100128.34;;;-4.85;100.00
63819;BME280;49970;54.976;73.248;2023-03-15T14:19:19;100126.63;;;-4.86;100.00
63819;BME280;49970;54.976;73.248;2023-03-15T14:21:51;100133.50;;;-4.85;100.00
63819;BME280;49970;54.976;73.248;2023-03-15T14:24:38;100136.94;;;-4.83;100.00
63819;BME280;49970;54.976;73.248;2023-03-15T14:29:47;100138.63;;;-4.79;100.00
63819;BME280;49970;54.976;73.248;2023-03-15T14:32:32;100139.44;;;-4.76;100.00
63819;BME280;49970;54.976;73.248;2023-03-15T14:35:16;100141.16;;;-4.74;100.00